Tiempo atmosférico en la estación meteorológica de Tenerife Sur Aeropuerto, Santa Cruz de Tenerife (64 m.)



Fecha
DESCASC
Temp. máxima en grados centígrados (hora)
DESCASC
Temp. mínima en grados centígrados (hora)
DESCASC
Temp. media en grados centígrados
DESCASC
Racha de viento máxima en m/sg (hora)
DESCASC
Velocidad máxima media en intervalos de 10 minutos(hora)
DESCASC
Precipitaciones diarias en mm
DESCASC
Precipitaciones de 00:00 a 06:00 en mm
DESCASC
Precipitaciones de 06:00 a 12:00 en mm
DESCASC
Precipitaciones de 12:00 a 18:00 en mm
DESCASC
Precipitaciones de 18:00 a 24:00 en mm
DESCASC
23-06-2019 28.1 (18:00) 18.6 (07:10) 23.4 10.83 (18:10) 7.78 (18:10) 0 0 0 0 0
22-06-2019 25.5 (12:50) 18.7 (07:20) 22.1 7.78 (13:20) 4.72 (13:10) 0 0 0 0 0
21-06-2019 26.6 (11:50) 19.2 (05:50) 22.9 12.78 (13:10) 9.72 (16:20) 0 0 0 0 0
20-06-2019 26.4 (11:10) 20 (00:00) 23.2 9.17 (12:30) 7.22 (12:40) 0 0 0 0 0
19-06-2019 26.1 (14:30) 19.4 (00:00) 22.8 8.33 (12:40) 6.11 (14:50) 0 0 0 0 0
18-06-2019 26.6 (14:30) 18.4 (00:00) 22.5 7.78 (08:20) 4.17 (15:00) 0 0 0 0 0
17-06-2019 26.9 (15:10) 17.9 (00:00) 22.4 12.5 (17:00) 8.61 (16:20) 0 0 0 0 0
16-06-2019 24.4 (15:00) 18.7 (00:00) 21.6 8.33 (14:40) 5 (14:40) 0 0 0 0 0
15-06-2019 25.1 (14:00) 16.8 (00:00) 20.9 10.28 (12:50) 7.78 (00:40) 0 0 0 0 0
14-06-2019 23.4 (11:00) 19.3 (00:00) 21.3 11.39 (22:00) 9.17 (22:10) 0 0 0 0 0
13-06-2019 23.3 (13:30) 19.7 (00:00) 21.5 8.89 (13:10) 6.94 (13:10) -- 0 -- 0 0
12-06-2019 23.5 (14:00) 19.1 (00:00) 21.3 10.83 (19:50) 8.06 (12:30) 0 0 0 0 0
11-06-2019 23.8 (16:20) 17.9 (00:00) 20.8 11.67 (13:50) 8.06 (13:50) 0 0 0 0 0
10-06-2019 25.3 (13:10) 17.6 (00:00) 21.4 16.94 (16:50) 12.22 (16:40) 0 0 0 0 0
09-06-2019 25.1 (16:00) 18.5 (00:00) 21.8 18.06 (14:50) 13.06 (14:10) -- -- 0 0 0
08-06-2019 23.9 (11:40) 18.7 (00:00) 21.3 15.28 (19:50) 12.5 (19:50) 0 0 0 0 0
07-06-2019 24.9 (13:50) 16.1 (00:00) 20.5 13.89 (11:40) 9.44 (11:40) 0 0 0 0 0
06-06-2019 24.4 (11:10) 19.1 (00:00) 21.8 13.89 (13:30) 10 (12:00) 0 0 0 0 0
05-06-2019 26.6 (14:30) 19.1 (00:00) 22.9 15 (13:40) 10.83 (13:20) 0 0 0 0 0
04-06-2019 28.6 (14:40) 17.9 (00:00) 23.3 15.28 (12:40) 11.11 (13:20) 0 0 0 0 0
03-06-2019 32.2 (14:40) 20.9 (00:00) 26.6 16.94 (00:30) 12.5 (11:10) 0 0 0 0 0
02-06-2019 27.1 (23:59) 17.3 (00:00) 22.2 16.11 (23:59) 11.11 (23:59) 0 0 0 0 0
01-06-2019 24.8 (13:30) 19.3 (00:00) 22 8.89 (05:50) 6.67 (06:20) 0 0 0 0 0
31-05-2019 25.5 (14:00) 18.3 (00:00) 21.9 8.89 (15:20) 5.83 (15:20) 0 0 0 0 0
30-05-2019 24 (15:00) 18 (00:00) 21 9.17 (09:50) 6.94 (10:10) 0 0 0 0 0
29-05-2019 24.3 (13:30) 16.7 (00:00) 20.5 9.17 (12:10) 5 (00:50) 0 0 0 0 0
28-05-2019 24.8 (15:30) 19.2 (00:00) 22 13.33 (14:50) 10.56 (14:50) 0 0 0 0 0
27-05-2019 28.4 (17:00) 16.5 (00:00) 22.4 12.5 (17:00) 8.61 (17:00) 0 0 0 0 0
26-05-2019 26 (16:20) 16.7 (00:00) 21.4 12.78 (12:20) 10 (14:00) 0 0 0 0 0

Gráficas

Temp. máximas Temp. mínimas Temp. medias Precipitaciones Rachas de viento máximas Velocidades máximas media en intervalos de 10 minutos

Datos horarios

Fecha y hora oficial Temperatura (ºC) Velocidad del viento (km/h) Dirección del viento Racha (km/h) Dirección de racha Precipitación (mm) Presión (hPa) Tendencia (hPa) Humedad (%)
2019-06-24 22:00:00 23.5 18 Oeste 28 Oeste 0 1008.1 1.1 79
2019-06-24 21:00:00 24.4 22 Oeste 33 Oeste 0 1007.8 0.8 74
2019-06-24 20:00:00 25.9 27 Sudoeste 41 Oeste 0 1007.4 0.1 66
2019-06-24 19:00:00 27.4 29 Oeste 39 Oeste 0 1007 -0.8 59
2019-06-24 18:00:00 28.1 24 Oeste 37 Sudoeste 0 1007 -1 56
2019-06-24 17:00:00 27.1 27 Sudoeste 33 Sudoeste 0 1007.3 -0.7 64
2019-06-24 16:00:00 27.1 20 Sudoeste 28 Sudoeste 0 1007.8 -0.2 65
2019-06-24 15:00:00 26.1 15 Sudoeste 24 Sur 0 1008 -0.2 72
2019-06-24 14:00:00 26.1 14 Sur 24 Sudoeste 0 1008 -0.1 69
2019-06-24 13:00:00 25.9 14 Sur 22 Sur 0 1008 0 70
2019-06-24 12:00:00 25.1 14 Sur 21 Sur 0 1008.2 0.5 72
2019-06-24 11:00:00 25.7 13 Sudeste 21 Sudeste 0 1008.1 0.8 70
2019-06-24 10:00:00 24.7 8 Sudeste 15 Sudeste 0 1008 1 73
2019-06-24 09:00:00 23.5 10 Este 15 Sudeste 0 1007.7 0.8 75
2019-06-24 08:00:00 20.9 6 Norte 9 Nordeste 0 1007.3 0.3 75
2019-06-24 07:00:00 19.7 5 Nordeste 8 Nordeste 0 1007 -0.2 76
2019-06-24 06:00:00 20.3 5 Norte 9 Noroeste 0 1006.9 -0.6 76
2019-06-24 05:00:00 20.7 9 Noroeste 11 Norte 0 1007 -0.9 78
2019-06-24 04:00:00 21.1 8 Noroeste 11 Noroeste 0 1007.2 -1.3 77
2019-06-24 03:00:00 21.2 4 Nordeste 17 Nordeste 0 1007.5 -0.9 71
2019-06-24 02:00:00 22 14 Nordeste -- -- -- 1007.9 -0.3 75
2019-06-24 01:00:00 22.9 12 Nordeste 17 Nordeste 0 1008.5 1 66
2019-06-24 00:00:00 22.7 12 Nordeste 18 Nordeste 0 1008.4 1.6 73
2019-06-23 23:00:00 23.4 11 Este 28 Nordeste 0 1008.2 1.8 69
2019-06-23 22:00:00 24.1 12 Nordeste 33 Nordeste 0 1007.5 1.2 67
2019-06-23 21:00:00 25.8 12 Oeste 26 Sudoeste 0 1006.8 0.3 62
2019-06-23 20:00:00 25.8 18 Sudoeste 33 Sudoeste 0 1006.4 -0.6 66
2019-06-23 19:00:00 26.4 27 Sudoeste 39 Sudoeste 0 1006.3 -1.5 63
2019-06-23 18:00:00 27.8 25 Sudoeste 37 Sudoeste 0 1006.5 -1.8 52
2019-06-23 17:00:00 26.6 26 Sudoeste 35 Sudoeste 0 1007 -1.9 57
2019-06-23 16:00:00 26.3 23 Sudoeste 32 Sudoeste 0 1007.8 -1.2 61
2019-06-23 15:00:00 26.4 19 Sudoeste 26 Sudoeste 0 1008.3 -0.6 58
2019-06-23 14:00:00 26.5 17 Sudoeste 24 Sudoeste 0 1008.9 0.1 54
2019-06-23 13:00:00 25.9 17 Sudoeste 22 Sudoeste 0 1009 0.3 56
2019-06-23 12:00:00 25.3 15 Sur 21 Sur 0 1008.9 0.4 58
2019-06-23 11:00:00 24.7 12 Sur 17 Sudoeste 0 1008.8 0.7 64
2019-06-23 10:00:00 24.4 7 Sudeste 13 Sudeste 0 1008.7 0.8 64
2019-06-23 09:00:00 22.9 6 Este 21 Nordeste 0 1008.5 0.9 66
2019-06-23 08:00:00 20.2 9 Nordeste 13 Nordeste 0 1008.1 0.5 73
2019-06-23 07:00:00 18.9 10 Norte 15 Nordeste 0 1007.9 0.1 76
2019-06-23 06:00:00 19 11 Norte 13 Norte 0 1007.6 -0.9 79
2019-06-23 05:00:00 19.4 10 Norte 11 Norte 0 1007.6 -1.5 82
2019-06-23 04:00:00 19.4 10 Noroeste 15 Noroeste 0 1007.8 -2 78
2019-06-23 03:00:00 19.9 10 Noroeste 32 Noroeste 0 1008.5 -1.5 80
2019-06-23 02:00:00 20.4 12 Oeste 15 Oeste 0 1009.1 -0.5 78
2019-06-23 01:00:00 20.9 12 Oeste 17 Noroeste 0 1009.8 0.6 78
2019-06-23 00:00:00 21.1 9 Oeste 13 Oeste 0 1010 1 78
2019-06-22 23:00:00 21.2 8 Oeste 11 Oeste 0 1009.6 0.9 80
2019-06-22 22:00:00 21.4 5 Oeste 11 Sudoeste 0 1009.2 0.5 75
2019-06-22 21:00:00 21.9 8 Sur 17 Sur 0 1009 0 73
2019-06-22 20:00:00 22.5 10 Sur 17 Sur 0 1008.7 -0.6 70
2019-06-22 19:00:00 23 10 Sur 18 Sudeste 0 1008.7 -1.1 69
2019-06-22 18:00:00 23.4 13 Sudeste 22 Sudeste 0 1009 -1.3 68
2019-06-22 17:00:00 23.9 14 Este 22 Sudeste 0 1009.3 -1.1 64
2019-06-22 16:00:00 23.9 15 Sudeste 24 Este 0 1009.8 -0.9 63
2019-06-22 15:00:00 24.5 16 Sudeste 28 Este 0 1010.3 -0.6 61
2019-06-22 14:00:00 25 15 Sudeste 28 Sudeste 0 1010.4 -0.4 59
2019-06-22 13:00:00 25.3 15 Sudeste 26 Sudeste 0 1010.7 -0.2 58
2019-06-22 12:00:00 24.3 15 Sudeste 24 Este 0 1010.9 0.1 62
2019-06-22 11:00:00 24.8 15 Sudeste 22 Sudeste 0 1010.8 0.4 60
2019-06-22 10:00:00 23.6 8 Sur 17 Sudeste 0 1010.9 1 63
2019-06-22 09:00:00 22.4 5 Sudoeste -- -- -- 1010.8 1.3 70
2019-06-22 08:00:00 19.6 9 Norte 17 Noroeste 0 1010.4 0.9 71
2019-06-22 07:00:00 19.2 5 Noroeste 18 Noroeste 0 1009.9 0.3 77
2019-06-22 06:00:00 20.1 9 Noroeste 13 Noroeste 0 1009.5 -0.3 76
2019-06-22 05:00:00 20.9 5 Sur 18 Sudeste 0 1009.5 -0.8 74
2019-06-22 04:00:00 20.9 6 Este 17 Sudeste 0 1009.6 -1.3 74
2019-06-22 03:00:00 20.3 8 Noroeste 11 Noroeste 0 1009.8 -1.2 74
2019-06-22 02:00:00 20.5 5 Sudeste 9 Este 0 1010.3 -0.5 75
2019-06-22 01:00:00 21.1 0 Calma 15 Norte 0 1010.9 0.4 73
2019-06-22 00:00:00 21.8 5 Nordeste 22 Este 0 1011 0.8 74
2019-06-21 23:00:00 21.6 17 Este 32 Este 0 1010.8 0.8 76
2019-06-21 22:00:00 21.9 22 Este 30 Este 0 1010.5 0.7 73
2019-06-21 21:00:00 22.4 18 Este 28 Este 0 1010.2 0.1 71
2019-06-21 20:00:00 22.8 21 Este 37 Este 0 1010 -0.3 70
2019-06-21 19:00:00 24.3 29 Este 41 Este 0 1009.8 -0.7 62
2019-06-21 18:00:00 24.9 29 Este 42 Este 0 1010.1 -0.7 58
2019-06-21 17:00:00 25.2 33 Este 46 Este 0 1010.3 -0.9 59
2019-06-21 16:00:00 25.9 32 Este 46 Este 0 1010.5 -0.8 57
2019-06-21 15:00:00 26 33 Este 46 Este 0 1010.8 -0.6 55
2019-06-21 14:00:00 25.6 33 Este 46 Este 0 1011.2 -0.2 58
2019-06-21 13:00:00 25.1 34 Este 45 Este 0 1011.3 0.3 59
2019-06-21 12:00:00 25.3 28 Este 37 Este 0 1011.4 0.7 59
2019-06-21 11:00:00 25.8 15 Sudeste 30 Sudeste 0 1011.4 1.2 56
2019-06-21 10:00:00 24.7 14 Este 26 Este 0 1011 0.7 58
2019-06-21 09:00:00 23.6 3 Este 13 Noroeste 0 1010.7 0.5 61
2019-06-21 08:00:00 20.5 10 Noroeste 17 Noroeste 0 1010.2 -0.1 70
2019-06-21 07:00:00 20.8 5 Este 17 Nordeste 0 1010.3 -0.3 74
2019-06-21 06:00:00 19.4 10 Nordeste 15 Norte 0 1010.2 -0.8 75
2019-06-21 05:00:00 19.9 10 Norte 13 Norte 0 1010.3 -1 75
2019-06-21 04:00:00 19.8 10 Norte 11 Norte 0 1010.6 -1.2 78
2019-06-21 03:00:00 19.8 9 Noroeste 9 Noroeste 0 1011 -1 78
2019-06-21 02:00:00 21.2 9 Sudeste 28 Este 0 1011.3 -0.1 77
2019-06-21 01:00:00 21.9 13 Este 21 Nordeste 0 1011.8 0.8 73
2019-06-21 00:00:00 22.3 5 Norte 22 Este 0 1012 1.5 72
2019-06-20 23:00:00 22.3 4 Este 21 Sudeste 0 1011.4 1.4 72
2019-06-20 22:00:00 22.6 8 Oeste 15 Sudoeste 0 1011 0.9 73
2019-06-20 21:00:00 22.9 6 Oeste 33 Norte 0 1010.5 -0.1 71
2019-06-20 20:00:00 23.5 5 Noroeste 24 Este 0 1010 -0.6 68
2019-06-20 19:00:00 23.2 12 Este 21 Este 0 1010.1 -0.7 72
2019-06-20 18:00:00 23.1 15 Este 30 Sudeste 0 1010.6 -0.5 74
2019-06-20 17:00:00 24.3 20 Este 30 Este 0 1010.6 -0.7 69
2019-06-20 16:00:00 23.7 20 Este 28 Este 0 1010.8 -0.8 70
2019-06-20 15:00:00 23.6 18 Este 30 Este 0 1011.1 -0.6 71
2019-06-20 14:00:00 23.3 22 Este 30 Este 0 1011.3 -0.1 70
2019-06-20 13:00:00 23 26 Este 33 Este 0 1011.6 0.2 71
2019-06-20 12:00:00 23.7 23 Este 32 Este 0 1011.7 0.8 69
2019-06-20 11:00:00 25.5 10 Sudoeste 18 Sudoeste 0 1011.4 0.7 55
2019-06-20 10:00:00 24.5 8 Sur 15 Sudoeste 0 1011.4 1 62
2019-06-20 09:00:00 22.6 2 Sur 15 Norte 0 1010.9 0.8 71
2019-06-20 08:00:00 21.1 7 Noroeste 11 Norte 0 1010.7 0.3 73
2019-06-20 07:00:00 20.3 9 Norte 15 Norte 0 1010.4 -0.3 73
2019-06-20 06:00:00 20.6 8 Nordeste 9 Nordeste 0 1010.1 -0.9 76
2019-06-20 05:00:00 21.3 2 Noroeste 11 Noroeste 0 1010.4 -1.2 77
2019-06-20 04:00:00 21.3 8 Noroeste 22 Sur 0 1010.7 -1.4 81
2019-06-20 03:00:00 21.2 8 Noroeste 13 Noroeste 0 1011 -1.3 84
2019-06-20 02:00:00 21.2 6 Noroeste 17 Noroeste 0 1011.6 -0.2 81
2019-06-20 01:00:00 21.4 5 Oeste 11 Oeste 0 1012.1 0.5 86
2019-06-20 00:00:00 21.2 9 Oeste 11 Oeste 0 1012.3 1.2 85
2019-06-19 23:00:00 21.3 5 Sudoeste 8 Sudoeste 0 1011.8 1.1 83
2019-06-19 22:00:00 21.8 5 Sudeste 11 Este 0 1011.6 1 82
2019-06-19 21:00:00 22.3 9 Sudeste 15 Sudeste 0 1011.1 0.5 77
2019-06-19 20:00:00 22.7 11 Este 17 Este 0 1010.7 -0.1 74
2019-06-19 19:00:00 23.3 12 Sudeste 18 Sudeste 0 1010.6 -0.6 69
2019-06-19 18:00:00 23.7 14 Este 22 Este 0 1010.6 -0.7 67
2019-06-19 17:00:00 23.7 16 Este 24 Este 0 1010.8 -0.9 70
2019-06-19 16:00:00 23.8 16 Este 26 Este 0 1011.2 -0.7 69
2019-06-19 15:00:00 24.3 19 Este 30 Este 0 1011.3 -0.3 68
2019-06-19 14:00:00 24.6 18 Este 28 Este 0 1011.7 0.3 68
2019-06-19 13:00:00 24.1 21 Este 30 Este 0 1011.9 1 71
2019-06-19 12:00:00 23.4 18 Este 28 Este 0 1011.6 1 74
2019-06-19 11:00:00 22.9 19 Este 24 Este 0 1011.4 1.1 77
2019-06-19 10:00:00 24.1 13 Sudeste 21 Sudeste 0 1010.9 0.9 73
2019-06-19 09:00:00 23.2 7 Sudeste 13 Noroeste 0 1010.6 0.9 76
2019-06-19 08:00:00 19.6 8 Noroeste 17 Noroeste 0 1010.3 0.7 79
2019-06-19 07:00:00 19.5 10 Noroeste 22 Noroeste 0 1010 0.3 80
2019-06-19 06:00:00 20.1 8 Norte 11 Norte 0 1009.7 -0.1 78
2019-06-19 05:00:00 21 4 Noroeste 5 Noroeste 0 1009.6 -0.6 76
2019-06-19 04:00:00 21.1 0 Calma 21 Noroeste 0 1009.7 -0.9 75
2019-06-19 03:00:00 20.8 0 Calma -- -- 0 1009.8 -1.1 78
2019-06-19 02:00:00 21.5 3 Nordeste 5 Nordeste 0 1010.2 -0.4 79
2019-06-19 01:00:00 21.4 0 Calma 8 Nordeste 0 1010.6 0.1 84
2019-06-19 00:00:00 21.7 4 Este 9 Sudeste 0 1010.9 0.8 86
2019-06-18 23:00:00 22.2 7 Sudeste 11 Este 0 1010.6 0.7 82
2019-06-18 22:00:00 22.8 7 Sur 9 Sur 0 1010.5 0.6 79
2019-06-18 21:00:00 22.9 6 Sur 15 Sur 0 1010.1 0.2 78
2019-06-18 20:00:00 23.2 8 Sudoeste 18 Sudoeste 0 1009.9 -0.2 76
2019-06-18 19:00:00 24.6 13 Sudoeste 21 Sudoeste 0 1009.9 -0.2 71
2019-06-18 18:00:00 25.8 14 Sur 24 Sudoeste 0 1009.9 -0.2 64
2019-06-18 17:00:00 25.8 14 Sur 22 Sudoeste 0 1010.1 -0.3 63
2019-06-18 16:00:00 26.1 15 Sur 24 Sur 0 1010.1 -0.8 61
2019-06-18 15:00:00 26.3 15 Sur 22 Sur 0 1010.1 -0.6 59
2019-06-18 14:00:00 26.1 13 Sur 21 Sur 0 1010.4 0.1 58
2019-06-18 13:00:00 25.3 9 Sur 21 Este 0 1010.9 0.8 61
2019-06-18 12:00:00 24.6 14 Sudeste 24 Sudeste 0 1010.7 0.9 66
2019-06-18 11:00:00 24.9 12 Este 21 Este 0 1010.3 0.9 64
2019-06-18 10:00:00 23.9 12 Este 17 Sudeste 0 1010.1 1.2 71
2019-06-18 09:00:00 22.8 10 Este 28 Nordeste 0 1009.8 1.3 71
2019-06-18 08:00:00 20.3 9 Norte 13 Nordeste 0 1009.4 1 69
2019-06-18 07:00:00 19.3 11 Nordeste 22 Norte 0 1008.9 0.3 80
2019-06-18 06:00:00 18.6 5 Nordeste 9 Nordeste 0 1008.5 -0.4 74
2019-06-18 05:00:00 19.5 9 Nordeste 11 Nordeste 0 1008.4 -1 76
2019-06-18 04:00:00 19.3 7 Este 9 Este 0 1008.6 -1.3 77
2019-06-18 03:00:00 20 7 Noroeste 17 Noroeste 0 1008.9 -1.3 77
2019-06-18 02:00:00 20 6 Noroeste 13 Norte 0 1009.4 -0.7 75
2019-06-18 01:00:00 20.8 0 Calma 8 Sudeste 0 1009.9 0.1 86
2019-06-18 00:00:00 21.2 7 Sudeste 11 Sudeste 0 1010.2 0.7 88
2019-06-17 23:00:00 21.9 8 Sudoeste 22 Oeste 0 1010.1 0.9 82
2019-06-17 22:00:00 22.6 19 Oeste 28 Oeste 0 1009.8 0.5 76
2019-06-17 21:00:00 23.8 17 Oeste 26 Oeste 0 1009.5 0 69
2019-06-17 20:00:00 24.3 21 Sudoeste 33 Sudoeste 0 1009.2 -0.4 73
2019-06-17 19:00:00 25.1 24 Sudoeste 33 Sudoeste 0 1009.3 -0.6 69
2019-06-17 18:00:00 25.3 27 Sudoeste 39 Sudoeste 0 1009.5 -0.6 65
2019-06-17 17:00:00 25.9 30 Sudoeste 45 Sudoeste 0 1009.6 -1 62
2019-06-17 16:00:00 25.5 29 Sudoeste 39 Sudoeste 0 1009.9 -1.1 64
2019-06-17 15:00:00 26.1 25 Sudoeste 33 Sudoeste 0 1010.1 -0.9 59
2019-06-17 14:00:00 25 24 Sudoeste 32 Sur 0 1010.6 -0.2 61
2019-06-17 13:00:00 24.5 15 Sur 26 Sur 0 1011 0.2 61
2019-06-17 12:00:00 23.8 17 Sur 24 Sur 0 1011 0.2 61
2019-06-17 11:00:00 23.1 17 Sudoeste 24 Sur 0 1010.8 0.3 66
2019-06-17 10:00:00 22.1 14 Sur 21 Sur 0 1010.8 0.4 70
2019-06-17 09:00:00 21.2 10 Sudoeste 24 Noroeste 0 1010.8 0.4 72
2019-06-17 08:00:00 19.4 6 Noroeste 18 Noroeste 0 1010.5 -0.3 73
2019-06-17 07:00:00 19 5 Norte 21 Noroeste 0 1010.4 -0.8 77
2019-06-17 06:00:00 17.9 9 Noroeste 11 Noroeste 0 1010.4 -1.2 79
2019-06-17 05:00:00 18.9 9 Noroeste 11 Noroeste 0 1010.8 -1.4 76
2019-06-17 04:00:00 19.9 5 Oeste -- -- 0 1011.2 -1.8 74
2019-06-17 03:00:00 19.7 4 Sur 8 Nordeste 0 1011.6 -1.3 74
2019-06-17 02:00:00 20.3 6 Nordeste 9 Nordeste 0 1012.2 -0.6 72
2019-06-17 01:00:00 20.1 0 Calma 9 Sudeste 0 1013 0.7 73
2019-06-17 00:00:00 20.3 6 Sudeste 11 Este 0 1012.9 0.9 72
2019-06-16 23:00:00 20.6 7 Sudeste 15 Este 0 1012.8 1.2 71
2019-06-16 22:00:00 20.8 10 Este 17 Este 0 1012.3 0.9 69
2019-06-16 21:00:00 21 11 Este 17 Este 0 1012 0.4 68
2019-06-16 20:00:00 21.8 10 Este 18 Este 0 1011.6 -0.2 66
2019-06-16 19:00:00 23.3 10 Sur 18 Este 0 1011.4 -0.6 60
2019-06-16 18:00:00 22.8 13 Sudeste 24 Sudeste 0 1011.6 -0.8 60
2019-06-16 17:00:00 23.1 15 Sudeste 24 Sudeste 0 1011.8 -0.9 57
2019-06-16 16:00:00 23.4 15 Sudeste 26 Este 0 1012 -0.9 57
2019-06-16 15:00:00 23.8 16 Sudeste 30 Este 0 1012.4 -0.5 55
2019-06-16 14:00:00 23.5 15 Sudeste 24 Sudeste 0 1012.7 0.1 58
2019-06-16 13:00:00 23.6 15 Sudeste 26 Sudeste 0 1012.9 0.4 54
2019-06-16 12:00:00 23 14 Sudeste 24 Este 0 1012.9 0.7 53
2019-06-16 11:00:00 22.5 17 Este 26 Este 0 1012.6 1 53
2019-06-16 10:00:00 21.9 15 Este 21 Este 0 1012.5 1.3 56
2019-06-16 09:00:00 20.3 13 Nordeste 17 Nordeste 0 1012.2 1.1 63
2019-06-16 08:00:00 19.8 9 Norte 13 Norte 0 1011.6 0.7 62
2019-06-16 07:00:00 19.2 10 Norte 17 Norte 0 1011.2 0.1 67
2019-06-16 06:00:00 19.1 10 Nordeste 13 Nordeste 0 1011.1 -0.5 65
2019-06-16 05:00:00 19.3 9 Nordeste 13 Nordeste 0 1010.9 -1.5 62
2019-06-16 04:00:00 19.2 8 Norte 15 Norte 0 1011.1 -1.6 63
2019-06-16 03:00:00 19.1 8 Nordeste 21 Norte 0 1011.6 -1.4 67
2019-06-16 02:00:00 19.2 8 Nordeste 17 Nordeste 0 1012.4 -0.1 68
2019-06-16 01:00:00 18.9 12 Nordeste 17 Nordeste 0 1012.7 0.8 71
2019-06-16 00:00:00 19.1 11 Nordeste 17 Nordeste 0 1013 1.7 70
2019-06-15 23:00:00 19.7 13 Este 26 Nordeste 0 1012.5 1.2 67
2019-06-15 22:00:00 20.2 18 Este 26 Este 0 1011.9 1.2 66
2019-06-15 21:00:00 20.5 17 Este 26 Este 0 1011.3 0.3 64
2019-06-15 20:00:00 20.9 19 Este 28 Este 0 1011.3 -0.1 62
2019-06-15 19:00:00 21.1 16 Este 26 Este 0 1010.7 -0.8 64
2019-06-15 18:00:00 21.3 15 Este 26 Este 0 1011 -0.5 64
2019-06-15 17:00:00 22 17 Este 30 Sudeste 0 1011.4 -0.4 61
2019-06-15 16:00:00 23.6 22 Este 35 Sudeste 0 1011.5 -0.5 52
2019-06-15 15:00:00 23.8 25 Este 35 Este 0 1011.5 -0.9 51
2019-06-15 14:00:00 24.4 26 Este 37 Este 0 1011.8 -0.4 48
2019-06-15 13:00:00 24.1 26 Este 37 Este 0 1012 0.2 48
2019-06-15 12:00:00 23.8 24 Este 33 Este 0 1012.4 0.8 46
2019-06-15 11:00:00 22.8 25 Este 35 Este 0 1012.2 0.8 52
2019-06-15 10:00:00 20.7 21 Nordeste 30 Este 0 1011.8 0.8 59
2019-06-15 09:00:00 20 18 Nordeste 24 Nordeste 0 1011.6 0.9 63
2019-06-15 08:00:00 17.6 13 Norte 18 Norte 0 1011.4 0.5 61
2019-06-15 07:00:00 17.3 13 Norte 24 Nordeste 0 1011 0.1 60
2019-06-15 06:00:00 17.5 20 Nordeste 30 Norte 0 1010.7 -0.6 61
2019-06-15 05:00:00 18.1 19 Nordeste 26 Norte 0 1010.9 -1 62
2019-06-15 04:00:00 17.8 18 Nordeste 26 Nordeste 0 1010.9 -1.5 67
2019-06-15 03:00:00 19 19 Nordeste 28 Nordeste 0 1011.3 -1.3 65
2019-06-15 02:00:00 19.5 23 Nordeste 33 Este 0 1011.9 -0.2 69
2019-06-15 01:00:00 19.7 24 Este 35 Este 0 1012.4 0.8 66
2019-06-15 00:00:00 19.7 20 Este 41 Nordeste 0 1012.6 1.3 66
2019-06-14 23:00:00 19.8 28 Nordeste 41 Nordeste 0 1012.1 1.1 68
2019-06-14 22:00:00 20 31 Nordeste 41 Nordeste 0 1011.6 0.6 68
2019-06-14 21:00:00 20.4 20 Este 32 Nordeste 0 1011.3 0.2 68
2019-06-14 20:00:00 20.8 21 Este 32 Este 0 1011 -0.2 63
2019-06-14 19:00:00 21.1 19 Este 32 Este 0 1011 -0.2 61
2019-06-14 18:00:00 21.3 22 Este 33 Este 0 1011.1 -0.3 59
2019-06-14 17:00:00 21.2 25 Este 33 Este 0 1011.2 -0.5 66
2019-06-14 16:00:00 21.4 22 Este 32 Este 0 1011.2 -0.7 60
2019-06-14 15:00:00 21.3 22 Este 32 Este 0 1011.4 -0.6 60
2019-06-14 14:00:00 21.5 24 Este 35 Este 0 1011.7 0.1 59
2019-06-14 13:00:00 21.6 22 Este 33 Este 0 1011.9 0.5 56
2019-06-14 12:00:00 21.4 22 Este 35 Este 0 1012 1.2 61
2019-06-14 11:00:00 23.1 26 Este 33 Este 0 1011.6 1.3 56
2019-06-14 10:00:00 20.8 18 Este 26 Este 0 1011.4 1.5 64
2019-06-14 09:00:00 20.1 18 Nordeste 28 Nordeste 0 1010.8 1.4 59
2019-06-14 08:00:00 19.4 14 Nordeste 30 Este 0 1010.3 1.2 67
2019-06-14 07:00:00 19.3 17 Nordeste 24 Este 0 1009.9 0.8 68
2019-06-14 06:00:00 19.4 19 Nordeste 28 Nordeste 0 1009.4 0 68
2019-06-14 05:00:00 19.4 17 Nordeste 24 Este 0 1009.1 -1 69
2019-06-14 04:00:00 19.5 15 Nordeste 26 Nordeste 0 1009.1 -1.4 68
2019-06-14 03:00:00 19.6 20 Nordeste 37 Nordeste 0 1009.4 -1.3 66
2019-06-14 02:00:00 19.8 20 Nordeste 32 Este 0 1010.1 -0.6 69
2019-06-14 01:00:00 19.9 18 Este 30 Este 0 1010.5 0.3 69
2019-06-14 00:00:00 20 20 Nordeste 32 Este 0 1010.7 1.3 71
2019-06-13 23:00:00 20.1 22 Nordeste 30 Nordeste 0 1010.7 1.5 69
2019-06-13 22:00:00 20.4 18 Este 24 Este 0 1010.2 1.2 61
2019-06-13 21:00:00 20.6 17 Este 28 Este 0 1009.4 0.5 63
2019-06-13 20:00:00 20.7 17 Este 26 Este 0 1009.2 0.3 68
2019-06-13 19:00:00 20.9 15 Este 24 Este 0 1009 -0.3 68
2019-06-13 18:00:00 21.3 14 Este 21 Este 0 1008.9 -0.3 65
2019-06-13 17:00:00 21.4 14 Este 26 Este 0 1008.9 -0.4 63
2019-06-13 16:00:00 21.2 16 Este 32 Este 0 1009.3 0 61
2019-06-13 15:00:00 21.7 22 Este 32 Este 0 1009.2 0 60
2019-06-13 14:00:00 22.6 24 Este 32 Este 0 1009.3 0.6 56
2019-06-13 13:00:00 22.4 22 Este 30 Este 0 1009.3 1.1 55
2019-06-13 12:00:00 21.9 17 Este -- -- -- 1009.2 1.8 57
2019-06-13 11:00:00 21.9 16 Este 24 Este 0 1008.7 1.8 59
2019-06-13 10:00:00 21.8 9 Sur 13 Sur 0 1008.2 1.6 58
2019-06-13 09:00:00 20.9 10 Noroeste 26 Noroeste 0 1007.4 0.9 61
2019-06-13 08:00:00 20.2 9 Noroeste 22 Este 0 1006.9 0.5 64
2019-06-13 07:00:00 19.8 15 Este 30 Este 0 1006.6 0.1 69
2019-06-13 06:00:00 20 7 Norte 9 Norte 0 1006.5 -0.2 65
2019-06-13 05:00:00 19.9 5 Nordeste 22 Este 0 1006.4 -0.7 64
2019-06-13 04:00:00 20 12 Este 22 Este 0 1006.5 -1 67
2019-06-13 03:00:00 20.1 10 Nordeste 26 Este 0 1006.7 -0.9 67
2019-06-13 02:00:00 20.3 5 Nordeste 26 Este 0 1007.1 -0.3 69
2019-06-13 01:00:00 20.3 16 Este 28 Este 0 1007.5 0.4 71
2019-06-13 00:00:00 20.6 15 Nordeste 24 Este 0 1007.6 1.1 69
2019-06-12 23:00:00 20.4 17 Este 30 Este 0 1007.4 1.4 71
2019-06-12 22:00:00 20.6 18 Este 28 Este 0 1007.1 1.3 72
2019-06-12 21:00:00 20.9 14 Este 32 Este 0 1006.5 0.3 74
2019-06-12 20:00:00 20.8 20 Este 39 Este 0 1006 -0.5 78
2019-06-12 19:00:00 21.2 21 Este 30 Este 0 1005.8 -1 71
2019-06-12 18:00:00 21.7 21 Este 28 Este 0 1006.2 -1.2 70
2019-06-12 17:00:00 22.3 11 Este 28 Este 0 1006.5 -0.8 60
2019-06-12 16:00:00 21.4 22 Este 30 Este 0 1006.8 -0.8 72
2019-06-12 15:00:00 21.6 24 Este 33 Este 0 1007.4 0 69
2019-06-12 14:00:00 23.3 23 Este 33 Este 0 1007.3 0.1 60
2019-06-12 13:00:00 22.6 24 Este 37 Este 0 1007.6 0.7 66
2019-06-12 12:00:00 21.5 24 Este 35 Nordeste 0 1007.4 0.8 74
2019-06-12 11:00:00 20.9 25 Este 35 Este 0 1007.2 0.7 80
2019-06-12 10:00:00 22.8 8 Este 22 Este 0 1006.9 0.7 65
2019-06-12 09:00:00 21.5 16 Este 22 Este 0 1006.6 0.6 73
2019-06-12 08:00:00 20.1 9 Nordeste 17 Nordeste 0 1006.5 0.5 79
2019-06-12 07:00:00 19.4 14 Este 18 Este 0 1006.2 0.1 81
2019-06-12 06:00:00 19.4 12 Este 18 Este 0 1006 -0.8 80
2019-06-12 05:00:00 19.7 15 Nordeste 32 Nordeste 0 1006 -1.4 80
2019-06-12 04:00:00 19.1 11 Norte 22 Este 0 1006.1 -1.8 82
2019-06-12 03:00:00 19.6 7 Nordeste 18 Este 0 1006.8 -1.2 77
2019-06-12 02:00:00 19.9 8 Este 15 Este 0 1007.4 -0.5 77
2019-06-12 01:00:00 20.4 0 Calma 9 Sudeste 0 1007.9 0.2 75
2019-06-12 00:00:00 20.9 6 Este 13 Este 0 1008 0.2 74
2019-06-11 23:00:00 21.3 2 Este 21 Este 0 1007.9 0.4 71
2019-06-11 22:00:00 21.7 13 Nordeste 33 Nordeste 0 1007.7 0.2 69
2019-06-11 21:00:00 21.7 19 Este 33 Este 0 1007.8 0.4 70
2019-06-11 20:00:00 22.3 24 Este 33 Nordeste 0 1007.5 -0.4 68
2019-06-11 19:00:00 22.9 22 Este 33 Este 0 1007.5 -0.8 66
2019-06-11 18:00:00 23.1 24 Este 39 Nordeste 0 1007.4 -1.3 68
2019-06-11 17:00:00 23.3 26 Este 35 Este 0 1007.9 -1.1 67
2019-06-11 16:00:00 23.3 24 Este 39 Este 0 1008.3 -1.3 69
2019-06-11 15:00:00 22.4 24 Este 41 Este 0 1008.7 -1 70
2019-06-11 14:00:00 22.5 27 Este 42 Este 0 1009 -0.7 68
2019-06-11 13:00:00 22.6 24 Este 39 Este 0 1009.6 0 67
2019-06-11 12:00:00 23.1 13 Este 32 Este 0 1009.7 0.4 63
2019-06-11 11:00:00 22.5 13 Sudoeste 21 Sudoeste 0 1009.7 0.5 58
2019-06-11 10:00:00 21.2 9 Sudoeste 15 Sudoeste 0 1009.6 0.5 63
2019-06-11 09:00:00 20.5 6 Sur 21 Noroeste 0 1009.3 0.2 65
2019-06-11 08:00:00 18.6 11 Oeste 15 Noroeste 0 1009.2 -0.2 71
2019-06-11 07:00:00 18.5 8 Oeste 13 Noroeste 0 1009.1 -0.6 71
2019-06-11 06:00:00 18.3 9 Norte 18 Noroeste 0 1009.1 -1.1 71
2019-06-11 05:00:00 19.3 10 Sudeste 24 Este 0 1009.4 -1.4 69
2019-06-11 04:00:00 18.6 8 Oeste 13 Noroeste 0 1009.7 -1.7 70
2019-06-11 03:00:00 18.6 5 Norte 18 Este 0 1010.2 -1.5 69
2019-06-11 02:00:00 19.3 5 Norte 30 Este 0 1010.8 -0.7 68
2019-06-11 01:00:00 19.8 19 Este 32 Este 0 1011.4 0.2 69
2019-06-11 00:00:00 20.1 21 Nordeste 37 Este 0 1011.7 0.8 68
2019-06-10 23:00:00 20.1 24 Este 37 Nordeste 0 1011.5 0.8 74
2019-06-10 22:00:00 20.5 25 Nordeste 41 Nordeste 0 1011.2 0.7 69
2019-06-10 21:00:00 20.8 27 Nordeste 48 Nordeste 0 1010.9 0.3 66
2019-06-10 20:00:00 21.9 38 Este 55 Este 0 1010.7 -0.5 63
2019-06-10 19:00:00 23.2 37 Este 58 Este 0 1010.5 -0.9 61
2019-06-10 18:00:00 24 36 Este 59 Este 0 1010.6 -1.4 54
2019-06-10 17:00:00 24.2 41 Este 61 Este 0 1011.2 -1.3 58
2019-06-10 16:00:00 25.1 43 Este 59 Este 0 1011.4 -1.5 56
2019-06-10 15:00:00 24.9 38 Este 55 Este 0 1012 -1.1 55
2019-06-10 14:00:00 24.8 34 Este 54 Este 0 1012.5 -0.7 55
2019-06-10 13:00:00 24.4 39 Este 55 Este 0 1012.9 -0.3 55
2019-06-10 12:00:00 24.3 38 Este 55 Nordeste 0 1013.1 -0.3 53
2019-06-10 11:00:00 23.3 38 Este 52 Nordeste 0 1013.2 -0.1 55
2019-06-10 10:00:00 22.6 36 Nordeste 50 Nordeste 0 1013.2 0.4 54
2019-06-10 09:00:00 21.2 26 Nordeste 41 Nordeste 0 1013.4 0.6 61
2019-06-10 08:00:00 19.2 19 Nordeste 35 Nordeste 0 1013.3 0.4 64
2019-06-10 07:00:00 18.2 14 Nordeste 28 Nordeste 0 1012.8 -0.3 71
2019-06-10 06:00:00 17.8 11 Norte 24 Norte 0 1012.8 -0.8 71
2019-06-10 05:00:00 18 12 Norte 26 Nordeste 0 1012.9 -1.2 72
2019-06-10 04:00:00 18.6 17 Nordeste 30 Nordeste 0 1013.1 -1.2 71
2019-06-10 03:00:00 18.7 17 Nordeste 35 Nordeste 0 1013.6 -0.7 71
2019-06-10 02:00:00 19 21 Nordeste 37 Nordeste 0 1014.1 0.1 69
2019-06-10 01:00:00 19.2 25 Nordeste 41 Nordeste 0 1014.3 0.6 66
2019-06-10 00:00:00 19.4 29 Nordeste 50 Nordeste 0 1014.3 1.1 66
2019-06-09 23:00:00 19.7 30 Nordeste 48 Nordeste 0 1014 1 66
2019-06-09 22:00:00 20 33 Nordeste 52 Este 0 1013.7 1.1 64
2019-06-09 21:00:00 20.6 32 Este 52 Este 0 1013.2 0.5 65
2019-06-09 20:00:00 22.1 34 Este 50 Este 0 1013 -0.1 58
2019-06-09 19:00:00 23 38 Este 58 Este 0 1012.6 -0.7 53
2019-06-09 18:00:00 23.8 44 Este 58 Este 0 1012.7 -0.7 49
2019-06-09 17:00:00 23.7 44 Este 58 Este 0 1013.1 -0.9 53
2019-06-09 16:00:00 24.3 42 Este 61 Este 0 1013.3 -1.3 51
2019-06-09 15:00:00 24.4 41 Este 65 Este 0 1013.4 -1.2 49
2019-06-09 14:00:00 24.1 44 Este 61 Este 0 1014 -0.4 47
2019-06-09 13:00:00 23.7 45 Este 61 Este 0 1014.6 0.2 51
2019-06-09 12:00:00 23.3 41 Este 55 Este 0 1014.6 0.5 52
2019-06-09 11:00:00 23.1 37 Este 54 Este 0 1014.4 0.4 48
2019-06-09 10:00:00 22.1 29 Nordeste 42 Nordeste 0 1014.4 0.7 47
2019-06-09 09:00:00 20.9 25 Nordeste 37 Nordeste 0 1014.1 0.7 52
2019-06-09 08:00:00 19 18 Nordeste 37 Nordeste 0 1014 0.9 62
2019-06-09 07:00:00 19.2 23 Nordeste 35 Este 0 1013.7 0.3 63
2019-06-09 06:00:00 19 16 Nordeste 39 Norte 0 1013.4 -0.4 61
2019-06-09 05:00:00 19.1 25 Nordeste 41 Nordeste 0 1013.1 -0.7 57
2019-06-09 04:00:00 19.1 30 Nordeste 41 Nordeste 0 1013.4 -- 59
2019-06-09 03:00:00 19.2 27 Este 46 Este 0 1013.8 -0.5 64
2019-06-09 02:00:00 19.5 31 Este -- -- -- 1013.8 -0.3 66
2019-06-09 01:00:00 -- -- -- -- -- -- -- -- --
2019-06-09 00:00:00 19.5 26 Nordeste 42 Este 0 1014.3 1.3 68
2019-06-08 23:00:00 19.8 27 Nordeste 41 Nordeste 0 1014.1 1.6 68
2019-06-08 22:00:00 19.6 26 Nordeste 45 Nordeste 0 1013.4 1.2 69
2019-06-08 21:00:00 19.8 31 Nordeste 50 Nordeste 0 1013 0.7 71
2019-06-08 20:00:00 20.6 41 Nordeste 55 Este 0 1012.5 0 69
2019-06-08 19:00:00 21.8 28 Nordeste 41 Este 0 1012.2 -0.4 61
2019-06-08 18:00:00 21.4 31 Este 46 Este 0 1012.3 -0.5 63
2019-06-08 17:00:00 21.4 28 Este 45 Este 0 1012.5 -0.5 60
2019-06-08 16:00:00 21.5 30 Este 45 Este 0 1012.6 -0.5 59
2019-06-08 15:00:00 21.9 31 Este 42 Este 0 1012.8 -0.3 62
2019-06-08 14:00:00 22.6 28 Este 42 Nordeste 0 1013 0.3 57
2019-06-08 13:00:00 22.5 29 Nordeste 45 Este 0 1013.1 0.6 63
2019-06-08 12:00:00 23.3 29 Nordeste 42 Este 0 1013.1 0.7 59
2019-06-08 11:00:00 22.7 33 Nordeste 48 Nordeste 0 1012.7 0.7 60
2019-06-08 10:00:00 21.3 33 Nordeste 45 Este 0 1012.5 1 68
2019-06-08 09:00:00 20.8 29 Nordeste 41 Este 0 1012.4 1.4 79
2019-06-08 08:00:00 20.5 19 Nordeste 37 Nordeste 0 1012 1.2 75
2019-06-08 07:00:00 19.8 23 Nordeste 35 Nordeste 0 1011.5 0.7 84
2019-06-08 06:00:00 19.9 21 Nordeste 39 Nordeste 0 1011 0.1 80
2019-06-08 05:00:00 20.3 21 Nordeste 28 Este 0 1010.8 -0.5 78
2019-06-08 04:00:00 19.4 3 Sudoeste 13 Noroeste 0 1010.8 -0.7 78
2019-06-08 03:00:00 19.2 10 Noroeste 13 Noroeste 0 1010.9 -0.8 76
2019-06-08 02:00:00 19.4 2 Oeste 15 Noroeste 0 1011.3 0.1 78
2019-06-08 01:00:00 18.9 8 Norte 24 Noroeste 0 1011.5 0.7 76
2019-06-08 00:00:00 19.4 8 Norte 32 Norte 0 1011.7 1.2 72
2019-06-07 23:00:00 20.3 10 Nordeste 22 Nordeste 0 1011.2 1.1 74
2019-06-07 22:00:00 20.6 10 Este 22 Este 0 1010.8 0.5 74
2019-06-07 21:00:00 21.5 13 Nordeste 21 Nordeste 0 1010.5 0.3 70
2019-06-07 20:00:00 22.4 12 Nordeste 24 Este 0 1010.1 -0.5 67
2019-06-07 19:00:00 22.6 8 Oeste 17 Oeste 0 1010.3 -0.3 66
2019-06-07 18:00:00 22.5 12 Sudoeste 22 Oeste 0 1010.2 -0.9 66
2019-06-07 17:00:00 22.4 17 Este 28 Este 0 1010.6 -0.3 66
2019-06-07 16:00:00 22.6 12 Este 18 Este 0 1010.6 -0.2 66
2019-06-07 15:00:00 22.7 7 Sudoeste 39 Este 0 1011.1 0.6 57
2019-06-07 14:00:00 24.1 31 Este 45 Este 0 1010.9 0.4 59
2019-06-07 13:00:00 24.1 33 Este 45 Este 0 1010.8 0.4 56
2019-06-07 12:00:00 23.9 33 Este 50 Nordeste 0 1010.5 0.3 51
2019-06-07 11:00:00 22.4 26 Este 39 Este 0 1010.5 0.8 57
2019-06-07 10:00:00 21.3 14 Nordeste 24 Este 0 1010.4 1.2 57
2019-06-07 09:00:00 19.6 12 Este 17 Norte 0 1010.2 1.1 55
2019-06-07 08:00:00 18 12 Norte 26 Noroeste 0 1009.7 0.9 64
2019-06-07 07:00:00 16.4 12 Noroeste 28 Noroeste 0 1009.2 0.1 72
2019-06-07 06:00:00 17 12 Noroeste 15 Noroeste 0 1009.1 -0.3 71
2019-06-07 05:00:00 17.3 13 Noroeste 15 Noroeste 0 1008.8 -1.2 69
2019-06-07 04:00:00 16.9 8 Norte 15 Noroeste 0 1009.1 -1.1 68
2019-06-07 03:00:00 17.6 4 Noroeste 17 Norte 0 1009.4 -1 67
2019-06-07 02:00:00 18.1 9 Norte 24 Este 0 1010 0.1 65
2019-06-07 01:00:00 19.6 17 Este 37 Este 0 1010.2 0.6 65
2019-06-07 00:00:00 19.2 10 Nordeste 30 Nordeste 0 1010.4 1.2 61
2019-06-06 23:00:00 19.7 24 Este 39 Este 0 1009.9 1.1 61
2019-06-06 22:00:00 20 30 Nordeste 46 Este 0 1009.6 0.7 60
2019-06-06 21:00:00 20.4 28 Este 42 Este 0 1009.2 0.1 59
2019-06-06 20:00:00 21.7 27 Este 45 Este 0 1008.8 -0.3 58
2019-06-06 19:00:00 22.2 30 Este 48 Este 0 1008.9 -0.4 57
2019-06-06 18:00:00 22.6 32 Este 50 Este 0 1009.1 -0.2 56
2019-06-06 17:00:00 23.1 32 Este 50 Este 0 1009.1 -0.5 53
2019-06-06 16:00:00 23.4 35 Este 46 Este 0 1009.3 -0.5 52
2019-06-06 15:00:00 23.4 32 Este 46 Nordeste 0 1009.3 -0.4 54
2019-06-06 14:00:00 22.7 34 Este 50 Este 0 1009.6 0.1 60
2019-06-06 13:00:00 23.6 32 Este 46 Este 0 1009.8 0.3 54
2019-06-06 12:00:00 23.6 36 Este 46 Este 0 1009.7 0.6 51
2019-06-06 11:00:00 23.5 28 Este 45 Este 0 1009.5 0.9 42
2019-06-06 10:00:00 21.6 31 Nordeste 41 Nordeste 0 1009.5 0.9 52
2019-06-06 09:00:00 20.7 27 Nordeste 41 Nordeste 0 1009.1 0.7 58
2019-06-06 08:00:00 20.1 31 Este 45 Este 0 1008.6 0.1 61
2019-06-06 07:00:00 19.6 23 Nordeste 39 Nordeste 0 1008.6 -0.2 66
2019-06-06 06:00:00 19.8 30 Este 41 Nordeste 0 1008.4 -0.8 69
2019-06-06 05:00:00 19.8 30 Este 45 Este 0 1008.5 -1.2 70
2019-06-06 04:00:00 19.8 34 Este 46 Nordeste 0 1008.8 -1.2 70
2019-06-06 03:00:00 19.8 33 Nordeste 48 Nordeste 0 1009.2 -1 72
2019-06-06 02:00:00 20 33 Nordeste 48 Nordeste 0 1009.7 0 74
2019-06-06 01:00:00 19.7 29 Nordeste 45 Nordeste 0 1010 0.5 78
2019-06-06 00:00:00 20.1 30 Nordeste 48 Nordeste 0 1010.2 0.9 76
2019-06-05 23:00:00 20.5 38 Nordeste 50 Nordeste 0 1009.7 0.6 74
2019-06-05 22:00:00 20.8 33 Nordeste 52 Nordeste 0 1009.5 0.6 72
2019-06-05 21:00:00 21.1 30 Nordeste 42 Nordeste 0 1009.3 0.2 70
2019-06-05 20:00:00 21.5 29 Nordeste 48 Este 0 1009.1 -0.4 71
2019-06-05 19:00:00 21.9 36 Este 48 Este 0 1008.9 -0.7 66
2019-06-05 18:00:00 22.3 34 Este 46 Este 0 1009.1 -1 67
2019-06-05 17:00:00 23.3 30 Este 46 Este 0 1009.5 -0.6 65
2019-06-05 16:00:00 23.9 31 Este 48 Este 0 1009.6 -0.6 63
2019-06-05 15:00:00 25.4 32 Este 52 Este 0 1010.1 -0.1 58
2019-06-05 14:00:00 25.5 36 Este 54 Este 0 1010.1 0.1 57
2019-06-05 13:00:00 24.8 37 Este 52 Este 0 1010.2 0.1 58
2019-06-05 12:00:00 24.9 35 Este 50 Este 0 1010.2 0 60
2019-06-05 11:00:00 24.9 33 Este 45 Este 0 1010 0.4 60
2019-06-05 10:00:00 23.3 30 Este 45 Este 0 1010.1 0.9 68
2019-06-05 09:00:00 23 23 Nordeste 35 Nordeste 0 1010.2 0.9 65
2019-06-05 08:00:00 20.9 23 Nordeste 32 Nordeste 0 1009.6 0.2 76
2019-06-05 07:00:00 20.4 23 Nordeste 33 Nordeste 0 1009.2 -0.1 72
2019-06-05 06:00:00 19.4 9 Nordeste 17 Nordeste 0 1009.3 -0.6 76
2019-06-05 05:00:00 19.4 13 Norte 18 Norte 0 1009.4 -0.9 80
2019-06-05 04:00:00 20.1 11 Oeste 22 Oeste 0 1009.3 -1.4 79
2019-06-05 03:00:00 20.3 0 Calma 18 Nordeste 0 1009.9 -1 78
2019-06-05 02:00:00 20.6 11 Nordeste 30 Nordeste 0 1010.3 -0.1 74
2019-06-05 01:00:00 20.8 21 Nordeste 39 Nordeste 0 1010.7 0.7 74
2019-06-05 00:00:00 21 22 Nordeste 33 Este 0 1010.9 1.3 72
2019-06-04 23:00:00 21.2 22 Este 33 Nordeste 0 1010.4 1.2 72
2019-06-04 22:00:00 21.1 18 Nordeste 35 Este 0 1010 0.8 77
2019-06-04 21:00:00 21.7 19 Este 33 Este 0 1009.6 0.3 73
2019-06-04 20:00:00 22.7 25 Este 39 Este 0 1009.2 -0.5 70
2019-06-04 19:00:00 23.6 28 Este 41 Este 0 1009.2 -0.5 66
2019-06-04 18:00:00 25 31 Este 45 Este 0 1009.3 -0.5 62
2019-06-04 17:00:00 25.4 32 Este 45 Este 0 1009.7 -0.4 61
2019-06-04 16:00:00 26.7 31 Este 45 Este 0 1009.7 -0.5 55
2019-06-04 15:00:00 27.9 32 Este 46 Este 0 1009.8 -0.4 48
2019-06-04 14:00:00 28 36 Este 52 Este 0 1010.1 0.3 42
2019-06-04 13:00:00 27.9 37 Este 55 Este 0 1010.2 0.9 41
2019-06-04 12:00:00 27.9 34 Este 45 Este 0 1010.2 1.5 37
2019-06-04 11:00:00 27.8 14 Este 26 Este 0 1009.8 1.5 38
2019-06-04 10:00:00 25.1 10 Oeste 17 Oeste 0 1009.3 1.6 55
2019-06-04 09:00:00 23.3 7 Sudoeste 13 Oeste 0 1008.7 1.5 57
2019-06-04 08:00:00 20.3 10 Noroeste 18 Oeste 0 1008.3 1.1 60
2019-06-04 07:00:00 18.3 6 Noroeste 18 Noroeste 0 1007.7 0.2 64
2019-06-04 06:00:00 18.1 6 Noroeste 9 Oeste 0 1007.2 -0.9 68
2019-06-04 05:00:00 19.4 7 Oeste 13 Noroeste 0 1007.2 -1.2 77
2019-06-04 04:00:00 19.1 6 Oeste 11 Noroeste 0 1007.5 -1.4 80
2019-06-04 03:00:00 19.6 7 Oeste 9 Oeste 0 1008.1 -1.1 77
2019-06-04 02:00:00 20.2 0 Calma 9 Noroeste 0 1008.4 -0.5 82
2019-06-04 01:00:00 20.9 6 Oeste 11 Oeste 0 1008.9 0.8 87
2019-06-04 00:00:00 21 7 Sudoeste 11 Sudoeste 0 1009.2 1.6 89
2019-06-03 23:00:00 21.7 7 Sudoeste 15 Oeste 0 1008.9 1.6 82
2019-06-03 22:00:00 22.5 12 Oeste 17 Oeste 0 1008.1 1.1 75
2019-06-03 21:00:00 23.8 8 Sudoeste 24 Nordeste 0 1007.6 0.3 65
2019-06-03 20:00:00 28.9 14 Nordeste 39 Este 0 1007.3 -0.1 28
2019-06-03 19:00:00 28.8 28 Este 52 Este 0 1007 -0.5 30
2019-06-03 18:00:00 28.7 29 Este 46 Este 0 1007.3 -0.4 38
2019-06-03 17:00:00 30 26 Este 35 Este 0 1007.4 -0.1 34
2019-06-03 16:00:00 30.6 9 Sudeste 33 Nordeste 0 1007.5 0.2 38
2019-06-03 15:00:00 31.7 26 Este 42 Nordeste 0 1007.7 0.4 26
2019-06-03 14:00:00 31.8 27 Este 54 Nordeste 0 1007.5 0.8 25
2019-06-03 13:00:00 30.9 40 Nordeste 58 Este 0 1007.3 0.6 27
2019-06-03 12:00:00 30.2 35 Nordeste 59 Nordeste 0 1007.3 1.1 28
2019-06-03 11:00:00 29.7 40 Este 54 Nordeste 0 1006.7 0.7 31
2019-06-03 10:00:00 29.3 23 Este 37 Este 0 1006.7 0.9 27
2019-06-03 09:00:00 26.2 14 Nordeste 30 Este 0 1006.2 0.5 35
2019-06-03 08:00:00 21.7 8 Oeste 21 Oeste 0 1006 0.2 61
2019-06-03 07:00:00 22.6 13 Oeste 46 Nordeste 0 1005.8 -0.1 48
2019-06-03 06:00:00 25 27 Nordeste 41 Nordeste 0 1005.7 -0.3 28
2019-06-03 05:00:00 25.4 31 Nordeste 50 Nordeste 0 1005.8 -0.4 24
2019-06-03 04:00:00 25.1 37 Este 50 Este 0 1005.9 -0.9 30
2019-06-03 03:00:00 25.2 38 Nordeste 54 Este 0 1006 -1.1 36
2019-06-03 02:00:00 28.6 30 Este 54 Nordeste 0 1006.2 -1 23
2019-06-03 01:00:00 29 42 Nordeste 61 Nordeste 0 1006.8 0.3 23
2019-06-03 00:00:00 26.5 40 Nordeste 58 Nordeste 0 1007.1 1.5 30
2019-06-02 23:00:00 21.2 5 Sudoeste 11 Oeste 0 1007.2 1.9 84
2019-06-02 22:00:00 21.6 11 Sudoeste 15 Sudoeste 0 1006.5 1.5 85
2019-06-02 21:00:00 22.5 4 Sur 17 Este 0 1005.6 0.5 77
2019-06-02 20:00:00 23.7 14 Este 21 Este 0 1005.3 0.2 72
2019-06-02 19:00:00 24 13 Este 22 Sudeste 0 1005 -0.4 71
2019-06-02 18:00:00 24.2 18 Este 26 Este 0 1005.1 -0.5 70
2019-06-02 17:00:00 24.7 21 Sudeste 32 Este 0 1005.1 -1.1 66
2019-06-02 16:00:00 25.5 21 Este 32 Este 0 1005.4 -0.8 64
2019-06-02 15:00:00 25.2 21 Sudeste 30 Sudeste 0 1005.6 -0.8 65
2019-06-02 14:00:00 24.9 11 Este 22 Sur 0 1006.2 0 67
2019-06-02 13:00:00 24.6 13 Sudoeste 22 Sur 0 1006.2 0.2 67
2019-06-02 12:00:00 23.5 17 Sudoeste 26 Sudoeste 0 1006.4 1 73
2019-06-02 11:00:00 22.9 12 Sur 18 Sudoeste 0 1006.2 1.5 74
2019-06-02 10:00:00 21.3 5 Sudeste 11 Este 0 1006 1.8 83
2019-06-02 09:00:00 19.9 7 Nordeste 22 Norte 0 1005.4 0.9 87
2019-06-02 08:00:00 18.2 9 Nordeste 13 Norte 0 1004.7 0.3 87
2019-06-02 07:00:00 17.6 10 Norte 26 Norte 0 1004.2 -0.6 87
2019-06-02 06:00:00 18.4 11 Nordeste 13 Nordeste 0 1004.5 -0.7 87
2019-06-02 05:00:00 19.5 8 Norte 13 Noroeste 0 1004.4 -1.1 81
2019-06-02 04:00:00 18.7 9 Noroeste 13 Noroeste 0 1004.8 -1.3 83
2019-06-02 03:00:00 18.6 8 Noroeste 11 Noroeste 0 1005.2 -1 82
2019-06-02 02:00:00 19.2 7 Nordeste 18 Norte 0 1005.5 0.1 83
2019-06-02 01:00:00 19.7 8 Nordeste 11 Nordeste 0 1006.1 1.4 81
2019-06-02 00:00:00 20.2 3 Este 11 Sudeste 0 1006.2 1.8 82
2019-06-01 23:00:00 20.8 8 Sur 13 Sudoeste 0 1005.4 1.4 79
2019-06-01 22:00:00 21 9 Sur 17 Sur 0 1004.7 1 78
2019-06-01 21:00:00 21.3 11 Sur 15 Sur 0 1004.4 0 77
2019-06-01 20:00:00 21.6 10 Sur 15 Sur 0 1004 -0.6 75
2019-06-01 19:00:00 22.1 8 Sudeste 17 Sudeste 0 1003.7 -1.3 74
2019-06-01 18:00:00 22.1 9 Sudeste 18 Sudeste 0 1004.4 -0.8 74
2019-06-01 17:00:00 22.7 12 Este 21 Sudeste 0 1004.6 -1.2 70
2019-06-01 16:00:00 23.4 14 Sudeste 28 Este 0 1005 -0.9 67
2019-06-01 15:00:00 24.1 15 Este 28 Este 0 1005.2 -0.8 65
2019-06-01 14:00:00 23.7 18 Este 30 Sudeste 0 1005.8 -0.4 67
2019-06-01 13:00:00 24.3 13 Sur 24 Sur 0 1005.9 -0.1 65
2019-06-01 12:00:00 23.9 15 Sudeste 24 Sur 0 1006 1.2 68
2019-06-01 11:00:00 21.6 10 Sudoeste 26 Sur 0 1006.2 2 74
2019-06-01 10:00:00 21.8 11 Sudeste 18 Sudeste 0 1006 2 73
2019-06-01 09:00:00 21.3 9 Sudeste 18 Norte 0 1004.8 1.2 74
2019-06-01 08:00:00 19.7 0 Calma 21 Oeste 0 1004.2 0 79
2019-06-01 07:00:00 19.4 16 Sudoeste 32 Sudoeste 0 1004 -0.9 81
2019-06-01 06:00:00 19.8 21 Sudoeste 32 Sudoeste 0 1003.6 -1.6 80
2019-06-01 05:00:00 20 6 Sudoeste 15 Este 0 1004.2 -1.3 80
2019-06-01 04:00:00 20.2 6 Nordeste 9 Nordeste 0 1004.9 -0.8 81
2019-06-01 03:00:00 19.6 9 Nordeste 13 Oeste 0 1005.2 -0.6 81
2019-06-01 02:00:00 20.3 10 Oeste 21 Oeste 0 1005.5 0 81
2019-06-01 01:00:00 20.3 14 Oeste 24 Oeste 0 1005.7 0.8 81
2019-06-01 00:00:00 20.2 10 Sudoeste 22 Oeste 0 1005.8 1.3 81
2019-05-31 23:00:00 20.4 9 Oeste 13 Sudoeste 0 1005.5 1.1 82
2019-05-31 22:00:00 20.5 8 Sudoeste 18 Oeste 0 1004.9 0.5 80
2019-05-31 21:00:00 20.9 14 Sudoeste 21 Sudoeste 0 1004.5 -0.3 77
2019-05-31 20:00:00 22.3 12 Sudoeste 21 Sur 0 1004.4 -0.9 71
2019-05-31 19:00:00 22.8 13 Sudoeste 22 Sudoeste 0 1004.4 -1.7 69
2019-05-31 18:00:00 23.2 13 Sur 21 Sur 0 1004.8 -1.5 68
2019-05-31 17:00:00 23.6 14 Sudeste 28 Sudeste 0 1005.3 -0.7 65
2019-05-31 16:00:00 23.5 18 Sudeste 32 Sudeste 0 1006.1 0 65
2019-05-31 15:00:00 24 20 Sudeste 30 Sudeste 0 1006.3 0.1 62
2019-05-31 14:00:00 25.4 14 Sudeste 22 Sudeste 0 1006 -0.3 54
2019-05-31 13:00:00 24.4 10 Sur 21 Sur 0 1006.1 -0.1 58
2019-05-31 12:00:00 24.2 9 Sudeste 18 Sur 0 1006.2 0.3 60
2019-05-31 11:00:00 22.9 13 Sur 17 Sur 0 1006.3 0.7 65
2019-05-31 10:00:00 21.7 9 Sur 17 Sudoeste 0 1006.2 0.7 69
2019-05-31 09:00:00 20.8 10 Sudoeste 21 Oeste 0 1005.9 0.6 72
2019-05-31 08:00:00 19.4 14 Oeste 21 Oeste 0 1005.6 0.1 77
2019-05-31 07:00:00 19.3 14 Oeste 28 Noroeste 0 1005.5 -0.2 78
2019-05-31 06:00:00 19.4 14 Oeste 21 Oeste 0 1005.3 -1 78
2019-05-31 05:00:00 18.6 10 Noroeste 13 Noroeste 0 1005.5 -1.4 79
2019-05-31 04:00:00 18.5 8 Noroeste 13 Noroeste 0 1005.7 -1.7 80
2019-05-31 03:00:00 19 9 Noroeste 13 Noroeste 0 1006.3 -1.2 79
2019-05-31 02:00:00 19.6 6 Sudoeste 13 Sudoeste 0 1006.9 -0.4 80
2019-05-31 01:00:00 19.8 6 Sudoeste 13 Oeste 0 1007.4 0.2 80
2019-05-31 00:00:00 19.7 9 Sudoeste 13 Sudoeste 0 1007.5 0.7 80
2019-05-30 23:00:00 19.7 8 Sudoeste 9 Oeste 0 1007.3 0.8 79
2019-05-30 22:00:00 20.1 7 Sudoeste 15 Sudoeste 0 1007.2 0.8 78
2019-05-30 21:00:00 20.8 7 Sur 15 Sur 0 1006.8 -0.1 74
2019-05-30 20:00:00 21.5 11 Sur 22 Sur 0 1006.5 -0.6 71
2019-05-30 19:00:00 22.8 10 Sur 22 Sur 0 1006.4 -0.9 66
2019-05-30 18:00:00 23 16 Sur 26 Sudeste 0 1006.9 -0.8 64
2019-05-30 17:00:00 23.3 17 Sur 30 Sur 0 1007.1 -0.7 64
2019-05-30 16:00:00 23.4 18 Sur 28 Sur 0 1007.3 -0.7 62
2019-05-30 15:00:00 23.7 18 Sur 28 Sudeste 0 1007.7 0 60
2019-05-30 14:00:00 23.1 15 Sur 24 Sur 0 1007.8 0.2 62
2019-05-30 13:00:00 23.1 14 Sudoeste 28 Sudoeste 0 1008 0.6 62
2019-05-30 12:00:00 22.8 19 Sudoeste 32 Sudoeste 0 1007.7 0.6 64
2019-05-30 11:00:00 22.3 23 Sudoeste 33 Sudoeste 0 1007.6 0.4 65
2019-05-30 10:00:00 21.6 24 Sudoeste 33 Sudoeste 0 1007.4 0.5 66
2019-05-30 09:00:00 21 20 Oeste 28 Oeste 0 1007.1 0.4 69
2019-05-30 08:00:00 19.6 15 Sudoeste 22 Sudoeste 0 1007.2 0.5 74
2019-05-30 07:00:00 19.4 8 Sudoeste 17 Oeste 0 1006.9 0.2 77
2019-05-30 06:00:00 19.6 14 Oeste 18 Oeste 0 1006.7 -0.5 74
2019-05-30 05:00:00 18.7 7 Oeste 11 Sudoeste 0 1006.7 -1 77
2019-05-30 04:00:00 19.6 9 Sudoeste 17 Sudoeste 0 1006.7 -1.4 76
2019-05-30 03:00:00 19.4 10 Oeste 17 Oeste 0 1007.2 -1.3 79
2019-05-30 02:00:00 18.6 6 Noroeste 13 Sudoeste 0 1007.7 -0.6 78
2019-05-30 01:00:00 19.4 10 Sudoeste 17 Oeste 0 1008.1 0.2 79
2019-05-30 00:00:00 19.8 12 Oeste 15 Oeste 0 1008.5 1 77
2019-05-29 23:00:00 20.1 9 Sudoeste 15 Oeste 0 1008.3 1 75
2019-05-29 22:00:00 20.3 6 Sur 13 Sudeste 0 1007.9 0.7 74
2019-05-29 21:00:00 20.6 9 Sudeste 17 Sudeste 0 1007.5 0.4 73
2019-05-29 20:00:00 21.2 9 Sudeste 18 Sudeste 0 1007.3 0 70
2019-05-29 19:00:00 22 13 Sudeste 22 Sudeste 0 1007.2 -0.4 66
2019-05-29 18:00:00 23.1 15 Sudeste 24 Sudeste 0 1007.1 -0.8 61
2019-05-29 17:00:00 23.4 13 Sudeste 26 Este 0 1007.3 -1.1 59
2019-05-29 16:00:00 23.6 16 Sudeste 24 Este 0 1007.6 -1.3 59
2019-05-29 15:00:00 23.4 14 Sudeste 32 Sudeste 0 1007.9 -1.2 61
2019-05-29 14:00:00 23.8 14 Sudeste 26 Este 0 1008.4 -0.4 60
2019-05-29 13:00:00 23.5 8 Sudeste 33 Sur 0 1008.9 0.4 61
2019-05-29 12:00:00 23.3 11 Sur 26 Sur 0 1009.1 0.6 61
2019-05-29 11:00:00 22.4 10 Sur 21 Sudoeste 0 1008.8 0.8 64
2019-05-29 10:00:00 21.5 5 Sudeste 15 Sur 0 1008.5 0.9 66
2019-05-29 09:00:00 20 7 Este 11 Este 0 1008.5 1.1 75
2019-05-29 08:00:00 17.9 4 Norte 13 Norte 0 1008 0.6 79
2019-05-29 07:00:00 17.1 5 Norte 15 Norte 0 1007.6 0.2 80
2019-05-29 06:00:00 17.7 7 Norte 11 Nordeste 0 1007.4 -0.6 78
2019-05-29 05:00:00 18.6 11 Nordeste 15 Este 0 1007.4 -1 77
2019-05-29 04:00:00 19.4 13 Este 21 Nordeste 0 1007.4 -1.2 76
2019-05-29 03:00:00 19.5 13 Nordeste 22 Nordeste 0 1008 -0.7 77
2019-05-29 02:00:00 20 11 Nordeste 22 Este 0 1008.4 0.2 75
2019-05-29 01:00:00 19.9 13 Este 24 Este 0 1008.6 0.6 76
2019-05-29 00:00:00 20.1 13 Nordeste 28 Nordeste 0 1008.7 1.3 75
2019-05-28 23:00:00 20.3 19 Este 33 Este 0 1008.2 1.1 75
2019-05-28 22:00:00 20.7 19 Este 39 Este 0 1008 1.3 74
2019-05-28 21:00:00 20.6 26 Nordeste 37 Este 0 1007.4 0.5 73
2019-05-28 20:00:00 22.2 26 Este 41 Este 0 1007.1 0 66
2019-05-28 19:00:00 22.8 28 Este 45 Este 0 1006.7 -0.3 65
2019-05-28 18:00:00 23.5 31 Este 46 Este 0 1006.9 -0.5 64
2019-05-28 17:00:00 24.1 35 Este 46 Este 0 1007.1 -0.4 61
2019-05-28 16:00:00 24.1 33 Este 46 Este 0 1007 -0.9 60
2019-05-28 15:00:00 24 35 Este 48 Este 0 1007.4 -0.2 59
2019-05-28 14:00:00 24.1 35 Este 45 Este 0 1007.5 0.1 60
2019-05-28 13:00:00 24.1 35 Este 46 Este 0 1007.9 0.7 59
2019-05-28 12:00:00 24.3 31 Este 45 Este 0 1007.6 0.3 58
2019-05-28 11:00:00 23.6 28 Este 42 Nordeste 0 1007.4 0.9 61
2019-05-28 10:00:00 22.3 27 Nordeste 42 Nordeste 0 1007.2 1.1 66
2019-05-28 09:00:00 20.8 20 Nordeste 30 Nordeste 0 1007.3 1.2 75
2019-05-28 08:00:00 20 15 Nordeste 32 Nordeste 0 1006.5 0.7 80
2019-05-28 07:00:00 19.4 20 Nordeste 30 Nordeste 0 1006.1 0.4 80
2019-05-28 06:00:00 19.3 10 Nordeste 18 Norte 0 1006.1 0.1 79
2019-05-28 05:00:00 19.4 12 Norte 32 Nordeste 0 1005.8 -0.5 80
2019-05-28 04:00:00 19.5 16 Nordeste 26 Nordeste 0 1005.7 -1.1 81
2019-05-28 03:00:00 19.4 14 Nordeste 22 Nordeste 0 1006 -1 80
2019-05-28 02:00:00 19.5 10 Nordeste 22 Nordeste 0 1006.3 -0.3 80
2019-05-28 01:00:00 19.9 11 Nordeste 28 Nordeste 0 1006.8 0.6 81
2019-05-28 00:00:00 19.9 16 Nordeste 30 Este 0 1007 1.2 82
2019-05-27 23:00:00 20.2 23 Este 32 Este 0 1006.6 1.1 80
2019-05-27 22:00:00 20.8 19 Este 24 Este 0 1006.2 1.1 77
2019-05-27 21:00:00 21.6 12 Este 22 Nordeste 0 1005.8 0.9 72
2019-05-27 20:00:00 23.1 12 Sur 24 Sudoeste 0 1005.5 0.5 67
2019-05-27 19:00:00 25.3 12 Este 35 Este 0 1005.1 -0.6 57
2019-05-27 18:00:00 26.3 25 Este 45 Nordeste 0 1004.9 -1.4 51
2019-05-27 17:00:00 28.1 31 Este 45 Este 0 1005 -1.1 36
2019-05-27 16:00:00 26.8 24 Este 35 Este 0 1005.7 -0.9 51
2019-05-27 15:00:00 26.4 21 Sudoeste 32 Sudoeste 0 1006.3 -0.3 52
2019-05-27 14:00:00 25.9 17 Sudoeste 24 Sudoeste 0 1006.1 -0.5 55
2019-05-27 13:00:00 25.7 14 Sudoeste 24 Sudoeste 0 1006.6 0.2 57
2019-05-27 12:00:00 24.9 13 Oeste 22 Sudoeste 0 1006.6 0.5 59
2019-05-27 11:00:00 23.7 15 Sudoeste 22 Sudoeste 0 1006.6 1 65
2019-05-27 10:00:00 23.1 12 Este 30 Nordeste 0 1006.4 1.1 63
2019-05-27 09:00:00 21.7 16 Nordeste 28 Nordeste 0 1006.1 0.9 71
2019-05-27 08:00:00 18.5 2 Noroeste 13 Nordeste 0 1005.6 0.1 77
2019-05-27 07:00:00 17.5 12 Nordeste 15 Nordeste 0 1005.3 -0.7 82
2019-05-27 06:00:00 16.6 6 Norte 11 Nordeste 0 1005.2 -1.1 84
2019-05-27 05:00:00 17 4 Norte 8 Norte 0 1005.5 -1.3 82
2019-05-27 04:00:00 18.5 4 Nordeste 13 Norte 0 1006 -1.1 84
2019-05-27 03:00:00 17.9 7 Noroeste 11 Norte 0 1006.3 -1 82
2019-05-27 02:00:00 18.4 5 Norte 18 Noroeste 0 1006.8 -0.3 78
2019-05-27 01:00:00 18.8 8 Noroeste 17 Noroeste 0 1007.1 0.4 78
2019-05-27 00:00:00 19.6 8 Oeste 11 Sudoeste 0 1007.3 1.2 82
2019-05-26 23:00:00 20.1 8 Sudoeste 15 Sur 0 1007.1 1.1 76
2019-05-26 22:00:00 21 6 Sur 24 Norte 0 1006.7 0.9 71
2019-05-26 21:00:00 22.6 9 Norte 26 Este 0 1006.1 0.2 58
2019-05-26 20:00:00 22.5 20 Este 35 Este 0 1006 -0.2 68
2019-05-26 19:00:00 23 28 Este 41 Este 0 1005.8 -0.7 64
2019-05-26 18:00:00 24 29 Este 39 Este 0 1005.9 -0.6 58
2019-05-26 17:00:00 24.8 30 Este 42 Este 0 1006.2 -0.8 57
2019-05-26 16:00:00 25.6 25 Este 42 Este 0 1006.5 -1.1 54
2019-05-26 15:00:00 25.3 32 Este 46 Este 0 1006.5 -1.1 55
2019-05-26 14:00:00 24.8 36 Este 46 Este 0 1007 -0.7 58
2019-05-26 13:00:00 25.2 30 Este 46 Este 0 1007.6 0.1 54
2019-05-26 12:00:00 24.5 32 Este 45 Este 0 1007.6 0.4 55
2019-05-26 11:00:00 23.6 30 Este 37 Este 0 1007.7 0.6 57
2019-05-26 10:00:00 22.5 21 Este 28 Este 0 1007.5 0.3 62
2019-05-26 09:00:00 21.2 0 Calma 26 Nordeste 0 1007.2 0.2 66
2019-05-26 08:00:00 17.5 9 Norte 13 Norte 0 1007.1 0.3 73
2019-05-26 07:00:00 17 10 Norte 21 Norte 0 1007.2 0.2 75
2019-05-26 06:00:00 18.3 8 Nordeste 15 Nordeste 0 1007 -0.1 73
2019-05-26 05:00:00 17.8 12 Noroeste 18 Este 0 1006.8 -0.7 74
2019-05-26 04:00:00 19.1 11 Este 18 Este 0 1007 -0.7 70
2019-05-26 03:00:00 20 11 Oeste 15 Oeste 0 1007.1 -0.5 69
2019-05-26 02:00:00 20.5 4 Noroeste 18 Este 0 1007.5 0 68
2019-05-26 01:00:00 20.5 13 Sudeste 22 Sudeste 0 1007.7 -0.2 67
2019-05-26 00:00:00 20.4 6 Sudoeste 24 Sudeste 0 1007.6 0.2 70